Latest Coastal Weather Observations for Rosslyn Bay Harbour

IDQ60701

Issued at 11:12 am EST Wednesday 19 December 2018 (issued every 10 minutes, with the page automatically refreshed every 10 minutes)

About coastal observations | Map of coastal stations | Coastal observations for QLD | Marine services | Other Formats
Station Details ID: 033208 Name: ROSSLYN BAY NTC AWS Lat: -23.16 Lon: 150.79 Height: 0.0 m
Data from the previous 72 hours. | See also: Recent months for locations in Queensland
Date/Time
EST
Wind Sea
Height
m
Swell Vis
km
Cloud Weather Temp
°C
Press
hPa
Rain since
9am
mm
Dir  Spd
kts
Gust
kts
Height
m
Period
s
Dir
19/11:00am S 10 19 - - - - - - - 27.0 1011.1 -
19/10:30am S 10 17 - - - - - - - 27.0 1011.3 -
19/10:00am S 10 17 - - - - - - - 26.9 1011.4 -
19/09:30am S 10 18 - - - - - - - 26.6 1011.4 -
19/09:00am S 11 17 - - - - - - - 26.3 1011.3 -
19/08:30am S 11 17 - - - - - - - 26.6 1011.1 -
19/08:00am S 12 18 - - - - - - - 26.4 1010.9 -
19/07:30am S 12 19 - - - - - - - 26.3 1010.6 -
19/07:00am S 11 17 - - - - - - - 26.3 1010.4 -
19/06:30am S 11 18 - - - - - - - 26.2 1009.8 -
19/06:00am S 11 19 - - - - - - - 26.1 1009.4 -
19/05:30am S 12 17 - - - - - - - 26.1 1008.9 -
19/05:00am S 12 19 - - - - - - - 26.0 1008.5 -
19/04:30am S 12 20 - - - - - - - 26.0 1008.0 -
19/02:30am S 10 18 - - - - - - - 25.5 1007.7 -
19/02:00am S 11 - - - - - - - - 25.3 1007.9 -
19/01:00am S 11 20 - - - - - - - 25.2 1008.2 -
19/12:30am S 7 16 - - - - - - - 25.0 1008.5 -
19/12:00am S 9 24 - - - - - - - 24.8 1008.5 -
 
Date/Time
EST
Wind Sea
Height
m
Swell Vis
km
Cloud Weather Temp
°C
Press
hPa
Rain since
9am
mm
Dir  Spd
kts
Gust
kts
Height
m
Period
s
Dir
18/11:30pm S 10 20 - - - - - - - 25.0 1008.9 -
18/11:00pm S 10 21 - - - - - - - 24.8 1009.4 -
18/10:30pm S 12 20 - - - - - - - 25.6 1009.4 -
18/10:00pm S 11 23 - - - - - - - 26.4 1009.6 -
18/09:30pm S 13 24 - - - - - - - 26.5 1009.5 -
18/09:00pm S 15 25 - - - - - - - 26.3 1009.2 -
18/08:32pm S 15 29 - - - - - - - 26.3 1009.1 -
18/08:30pm S 14 29 - - - - - - - 26.3 1009.0 -
18/08:00pm S 15 27 - - - - - - - 26.1 1008.6 -
18/07:42pm S 15 29 - - - - - - - 26.4 1008.4 -
18/07:30pm S 14 24 - - - - - - - 26.5 1008.3 -
18/07:00pm S 16 30 - - - - - - - 27.3 1008.0 -
18/06:45pm S 15 26 - - - - - - - 27.6 1007.6 -
18/06:30pm S 13 25 - - - - - - - 27.4 1007.4 -
18/06:00pm S 8 15 - - - - - - - 27.0 1007.1 -
18/05:30pm S 11 17 - - - - - - - 26.9 1006.7 -
18/05:00pm S 10 15 - - - - - - - 26.8 1006.5 -
18/04:30pm S 10 16 - - - - - - - 26.9 1006.2 -
18/04:00pm S 11 17 - - - - - - - 27.2 1006.0 -
18/03:30pm S 12 19 - - - - - - - 27.1 1005.9 -
18/03:00pm S 11 17 - - - - - - - 26.8 1006.0 -
18/02:30pm S 12 19 - - - - - - - 27.2 1006.1 -
18/02:00pm S 13 17 - - - - - - - 27.3 1006.4 -
18/01:30pm S 11 18 - - - - - - - 27.4 1006.6 -
18/01:00pm S 10 19 - - - - - - - 27.8 1007.1 -
18/12:30pm S 9 16 - - - - - - - 27.5 1007.2 -
18/12:00pm S 8 15 - - - - - - - 27.3 1007.4 -
18/11:30am S 7 15 - - - - - - - 27.2 1007.7 -
18/11:00am S 10 18 - - - - - - - 26.9 1007.8 -
18/10:30am S 9 21 - - - - - - - 26.5 1008.0 -
18/10:00am S 9 18 - - - - - - - 26.4 1008.1 -
18/09:30am S 7 15 - - - - - - - 26.6 1008.2 -
18/09:00am S 7 16 - - - - - - - 26.4 1008.1 -
18/08:30am S 8 15 - - - - - - - 26.2 1008.0 -
18/08:00am S 7 13 - - - - - - - 25.9 1007.9 -
18/07:30am S 7 15 - - - - - - - 25.7 1007.8 -
18/07:00am S 10 22 - - - - - - - 25.4 1007.5 -
18/06:30am S 10 20 - - - - - - - 24.2 1007.4 -
18/06:00am S 8 16 - - - - - - - 25.2 1007.0 -
18/05:30am S 9 16 - - - - - - - 25.1 1006.4 -
18/05:00am S 7 15 - - - - - - - 25.0 1006.0 -
18/04:30am S 9 19 - - - - - - - 24.6 1005.7 -
18/04:00am S 7 15 - - - - - - - 24.8 1005.3 -
18/03:30am S 9 20 - - - - - - - 24.8 1005.1 -
18/03:00am S 7 17 - - - - - - - 25.1 1004.9 -
18/02:30am S 7 14 - - - - - - - 25.0 1005.0 -
18/02:00am S 10 20 - - - - - - - 25.2 1005.1 -
18/01:30am S 8 21 - - - - - - - 25.3 1005.2 -
18/01:00am S 8 25 - - - - - - - 25.2 1005.4 -
18/12:30am S 10 20 - - - - - - - 25.3 1005.8 -
18/12:00am S 10 19 - - - - - - - 25.5 1006.2 -
 
Date/Time
EST
Wind Sea
Height
m
Swell Vis
km
Cloud Weather Temp
°C
Press
hPa
Rain since
9am
mm
Dir  Spd
kts
Gust
kts
Height
m
Period
s
Dir
17/11:30pm S 12 21 - - - - - - - 25.5 1006.5 -
17/11:00pm S 12 22 - - - - - - - 25.6 1006.6 -
17/10:30pm S 15 29 - - - - - - - 25.6 1006.7 -
17/10:05pm S 15 26 - - - - - - - 25.7 1006.8 -
17/10:00pm S 14 25 - - - - - - - 25.6 1006.7 -
17/09:30pm S 13 23 - - - - - - - 25.8 1006.7 -
17/09:09pm S 15 27 - - - - - - - 26.0 1006.4 -
17/09:00pm S 14 25 - - - - - - - 25.9 1006.4 -
17/08:35pm S 15 27 - - - - - - - 26.0 1006.2 -
17/08:30pm S 14 24 - - - - - - - 26.0 1006.1 -
17/08:00pm S 14 26 - - - - - - - 26.1 1005.7 -
17/07:51pm S 15 26 - - - - - - - 26.0 1005.6 -
17/07:30pm S 16 24 - - - - - - - 26.1 1005.3 -
17/07:00pm S 16 24 - - - - - - - 26.0 1004.8 -
17/06:38pm S 16 27 - - - - - - - 26.0 1004.5 -
17/06:30pm S 16 23 - - - - - - - 26.1 1004.5 -
17/06:00pm S 14 23 - - - - - - - 26.2 1004.1 -
17/05:33pm S 15 29 - - - - - - - 26.2 1003.7 -
17/05:30pm S 14 27 - - - - - - - 26.2 1003.8 -
17/05:00pm S 17 28 - - - - - - - 26.5 1003.3 -
17/04:30pm S 16 29 - - - - - - - 26.4 1003.2 -
17/04:00pm S 18 30 - - - - - - - 26.1 1002.9 -
17/03:30pm S 15 27 - - - - - - - 26.3 1003.2 -
17/03:00pm S 15 27 - - - - - - - 26.2 1003.5 -
17/02:30pm S 16 29 - - - - - - - 26.2 1003.8 -
17/02:00pm S 17 30 - - - - - - - 25.9 1004.3 -
17/01:30pm S 17 27 - - - - - - - 26.1 1004.5 -
17/01:00pm S 16 30 - - - - - - - 26.0 1004.8 -
17/12:46pm S 15 25 - - - - - - - 25.9 1004.8 -
17/12:30pm S 14 25 - - - - - - - 25.9 1004.9 -
17/12:00pm S 15 27 - - - - - - - 25.7 1005.0 -
17/11:53am S 15 26 - - - - - - - 25.7 1005.0 -
17/11:30am S 13 23 - - - - - - - 25.8 1005.0 -
17/11:00am S 13 24 - - - - - - - 25.6 1005.1 -
17/10:41am S 15 25 - - - - - - - 25.1 1004.9 -
17/10:30am S 12 21 - - - - - - - 25.6 1005.2 -
17/10:03am S 15 26 - - - - - - - 25.3 1004.9 -
17/10:00am S 14 25 - - - - - - - 25.1 1004.9 -
17/09:30am S 13 23 - - - - - - - 25.4 1005.2 -
17/09:00am S 12 20 - - - - - - - 25.8 1005.3 -
17/08:30am S 10 19 - - - - - - - 25.5 1005.4 -
17/08:00am S 12 20 - - - - - - - 25.0 1005.7 -
17/07:30am S 12 22 - - - - - - - 24.9 1005.7 -
17/07:00am S 11 18 - - - - - - - 25.0 1005.4 -
17/06:30am S 10 19 - - - - - - - 24.7 1005.1 -
17/06:00am S 12 18 - - - - - - - 24.7 1004.9 -
17/05:30am S 10 17 - - - - - - - 25.1 1004.5 -
17/05:00am S 8 14 - - - - - - - 25.3 1004.1 -
17/04:30am SW 4 11 - - - - - - - 25.2 1003.8 -
17/04:00am S 5 13 - - - - - - - 25.1 1003.6 -
17/03:30am SSW 6 12 - - - - - - - 24.9 1003.5 -
17/03:00am S 9 17 - - - - - - - 24.3 1003.7 -
17/02:30am S 9 14 - - - - - - - 24.9 1003.9 -
17/02:00am S 11 18 - - - - - - - 25.4 1004.1 -
17/01:30am S 8 16 - - - - - - - 25.5 1004.2 -
17/01:00am S 8 14 - - - - - - - 25.5 1004.5 -
17/12:30am S 10 19 - - - - - - - 25.1 1004.9 -
17/12:00am S 9 14 - - - - - - - 25.5 1005.2 -
 
Date/Time
EST
Wind Sea
Height
m
Swell Vis
km
Cloud Weather Temp
°C
Press
hPa
Rain since
9am
mm
Dir  Spd
kts
Gust
kts
Height
m
Period
s
Dir
16/11:30pm S 7 12 - - - - - - - 25.2 1005.6 -
16/11:00pm S 5 11 - - - - - - - 25.1 1005.9 -
16/10:30pm S 5 12 - - - - - - - 25.4 1005.9 -
16/10:00pm S 7 12 - - - - - - - 25.4 1006.3 -
16/09:30pm S 5 11 - - - - - - - 25.2 1006.5 -
16/09:00pm S 7 11 - - - - - - - 25.1 1006.3 -
16/08:30pm S 7 14 - - - - - - - 24.8 1006.1 -
16/08:00pm S 6 10 - - - - - - - 24.5 1006.3 -
16/07:30pm S 5 8 - - - - - - - 24.3 1006.4 -
16/07:00pm SSW 1 3 - - - - - - - 23.6 1006.3 -
16/06:30pm S 3 7 - - - - - - - 23.8 1006.0 -
16/06:00pm S 3 7 - - - - - - - 23.9 1006.2 -
16/05:30pm S 6 13 - - - - - - - 23.7 1006.0 -
16/05:00pm S 8 15 - - - - - - - 23.5 1005.7 -
16/04:30pm S 8 15 - - - - - - - 23.2 1005.5 -
16/04:00pm S 6 12 - - - - - - - 23.1 1005.8 -
16/03:30pm S 8 14 - - - - - - - 22.9 1005.9 -
16/03:00pm S 7 12 - - - - - - - 23.0 1006.1 -
16/02:30pm S 10 16 - - - - - - - 23.0 1006.0 -
16/02:00pm S 8 13 - - - - - - - 23.2 1006.6 -
16/01:30pm S 9 14 - - - - - - - 23.3 1007.1 -
16/01:00pm S 9 14 - - - - - - - 23.2 1007.3 -
16/12:30pm S 12 17 - - - - - - - 23.7 1007.2 -
16/12:00pm S 3 10 - - - - - - - 23.7 1007.5 -
16/11:30am SE 3 11 - - - - - - - 24.4 1007.9 -

Other Formats:

Comma delimited format used in spreadsheet applications
http://www.bom.gov.au/fwo/IDQ60701/IDQ60701.95298.axf

JavaScript Object Notation format (JSON) in row-major order
http://www.bom.gov.au/fwo/IDQ60701/IDQ60701.95298.json